sensor_id;sensor_type;location;lat;lon;timestamp;temperature;humidity
21770;DHT22;11046;49.558;8.674;2024-02-21T00:02:37;8.30;99.90
21770;DHT22;11046;49.558;8.674;2024-02-21T00:05:38;8.30;99.90
21770;DHT22;11046;49.558;8.674;2024-02-21T00:08:38;8.40;99.90
21770;DHT22;11046;49.558;8.674;2024-02-21T00:11:39;8.30;99.90
21770;DHT22;11046;49.558;8.674;2024-02-21T00:14:40;8.30;99.90
21770;DHT22;11046;49.558;8.674;2024-02-21T00:17:41;8.30;99.90
21770;DHT22;11046;49.558;8.674;2024-02-21T00:20:41;8.20;99.90
21770;DHT22;11046;49.558;8.674;2024-02-21T00:23:42;8.30;99.90
21770;DHT22;11046;49.558;8.674;2024-02-21T00:26:42;8.20;99.90
21770;DHT22;11046;49.558;8.674;2024-02-21T00:29:43;8.30;99.90
21770;DHT22;11046;49.558;8.674;2024-02-21T00:32:43;8.20;99.90
21770;DHT22;11046;49.558;8.674;2024-02-21T00:35:44;8.20;99.90
21770;DHT22;11046;49.558;8.674;2024-02-21T00:38:45;8.20;99.90
21770;DHT22;11046;49.558;8.674;2024-02-21T00:41:45;8.20;99.90
21770;DHT22;11046;49.558;8.674;2024-02-21T00:44:46;8.30;99.90
21770;DHT22;11046;49.558;8.674;2024-02-21T00:47:46;8.30;99.90
21770;DHT22;11046;49.558;8.674;2024-02-21T00:50:47;8.20;99.90
21770;DHT22;11046;49.558;8.674;2024-02-21T00:53:47;8.20;99.90
21770;DHT22;11046;49.558;8.674;2024-02-21T00:56:48;8.20;99.90
21770;DHT22;11046;49.558;8.674;2024-02-21T00:59:49;8.20;99.90
21770;DHT22;11046;49.558;8.674;2024-02-21T01:02:49;8.20;99.90
21770;DHT22;11046;49.558;8.674;2024-02-21T01:05:50;8.10;99.90
21770;DHT22;11046;49.558;8.674;2024-02-21T01:08:50;8.20;99.90
21770;DHT22;11046;49.558;8.674;2024-02-21T01:11:51;8.10;99.90
21770;DHT22;11046;49.558;8.674;2024-02-21T01:14:51;8.10;99.90
21770;DHT22;11046;49.558;8.674;2024-02-21T01:17:52;8.20;99.90
21770;DHT22;11046;49.558;8.674;2024-02-21T01:20:55;8.20;99.90
21770;DHT22;11046;49.558;8.674;2024-02-21T01:23:55;8.20;99.90
21770;DHT22;11046;49.558;8.674;2024-02-21T01:26:56;8.10;99.90
21770;DHT22;11046;49.558;8.674;2024-02-21T01:29:56;8.00;99.90
21770;DHT22;11046;49.558;8.674;2024-02-21T01:32:57;8.00;99.90
21770;DHT22;11046;49.558;8.674;2024-02-21T01:35:57;8.00;99.90
21770;DHT22;11046;49.558;8.674;2024-02-21T01:38:58;8.00;99.90
21770;DHT22;11046;49.558;8.674;2024-02-21T01:41:58;8.00;99.90
21770;DHT22;11046;49.558;8.674;2024-02-21T01:44:59;8.00;99.90
21770;DHT22;11046;49.558;8.674;2024-02-21T01:48:00;8.00;99.90
21770;DHT22;11046;49.558;8.674;2024-02-21T01:51:01;7.90;99.90
21770;DHT22;11046;49.558;8.674;2024-02-21T01:54:02;7.90;99.90
21770;DHT22;11046;49.558;8.674;2024-02-21T01:57:03;7.80;99.90
21770;DHT22;11046;49.558;8.674;2024-02-21T02:00:05;7.80;99.90
21770;DHT22;11046;49.558;8.674;2024-02-21T02:03:12;7.80;99.90
21770;DHT22;11046;49.558;8.674;2024-02-21T02:06:18;7.80;99.90
21770;DHT22;11046;49.558;8.674;2024-02-21T02:09:19;7.80;99.90
21770;DHT22;11046;49.558;8.674;2024-02-21T02:12:19;7.80;99.90
21770;DHT22;11046;49.558;8.674;2024-02-21T02:15:20;7.80;99.90
21770;DHT22;11046;49.558;8.674;2024-02-21T02:18:20;7.80;99.90
21770;DHT22;11046;49.558;8.674;2024-02-21T02:21:30;7.80;99.90
21770;DHT22;11046;49.558;8.674;2024-02-21T02:24:32;7.80;99.90
21770;DHT22;11046;49.558;8.674;2024-02-21T02:27:33;7.80;99.90
21770;DHT22;11046;49.558;8.674;2024-02-21T02:30:41;7.80;99.90
21770;DHT22;11046;49.558;8.674;2024-02-21T02:33:45;7.80;99.90
21770;DHT22;11046;49.558;8.674;2024-02-21T02:36:45;7.80;99.90
21770;DHT22;11046;49.558;8.674;2024-02-21T02:39:49;7.80;99.90
21770;DHT22;11046;49.558;8.674;2024-02-21T02:46:06;7.80;99.90
21770;DHT22;11046;49.558;8.674;2024-02-21T02:49:06;7.70;99.90
21770;DHT22;11046;49.558;8.674;2024-02-21T02:52:07;7.80;99.90
21770;DHT22;11046;49.558;8.674;2024-02-21T02:55:08;7.70;99.90
21770;DHT22;11046;49.558;8.674;2024-02-21T02:58:09;7.80;99.90
21770;DHT22;11046;49.558;8.674;2024-02-21T03:01:09;7.70;99.90
21770;DHT22;11046;49.558;8.674;2024-02-21T03:04:10;7.70;99.90
21770;DHT22;11046;49.558;8.674;2024-02-21T03:07:11;7.70;99.90
21770;DHT22;11046;49.558;8.674;2024-02-21T03:10:15;7.70;99.90
21770;DHT22;11046;49.558;8.674;2024-02-21T03:13:16;7.70;99.90
21770;DHT22;11046;49.558;8.674;2024-02-21T03:16:17;7.80;99.90
21770;DHT22;11046;49.558;8.674;2024-02-21T03:19:18;7.70;99.90
21770;DHT22;11046;49.558;8.674;2024-02-21T03:22:18;7.80;99.90
21770;DHT22;11046;49.558;8.674;2024-02-21T03:25:19;7.70;99.90
21770;DHT22;11046;49.558;8.674;2024-02-21T03:28:20;7.70;99.90
21770;DHT22;11046;49.558;8.674;2024-02-21T03:31:20;7.60;99.90
21770;DHT22;11046;49.558;8.674;2024-02-21T03:34:21;7.50;99.90
21770;DHT22;11046;49.558;8.674;2024-02-21T03:37:22;7.50;99.90
21770;DHT22;11046;49.558;8.674;2024-02-21T03:40:22;7.50;99.90
21770;DHT22;11046;49.558;8.674;2024-02-21T03:43:23;7.60;99.90
21770;DHT22;11046;49.558;8.674;2024-02-21T03:46:24;7.60;99.90
21770;DHT22;11046;49.558;8.674;2024-02-21T03:49:25;7.50;99.90
21770;DHT22;11046;49.558;8.674;2024-02-21T03:52:26;7.60;99.90
21770;DHT22;11046;49.558;8.674;2024-02-21T03:55:26;7.50;99.90
21770;DHT22;11046;49.558;8.674;2024-02-21T03:58:27;7.50;99.90
21770;DHT22;11046;49.558;8.674;2024-02-21T04:01:28;7.50;99.90
21770;DHT22;11046;49.558;8.674;2024-02-21T04:04:29;7.60;99.90
21770;DHT22;11046;49.558;8.674;2024-02-21T04:07:29;7.70;99.90
21770;DHT22;11046;49.558;8.674;2024-02-21T04:10:30;7.60;99.90
21770;DHT22;11046;49.558;8.674;2024-02-21T04:13:31;7.60;99.90
21770;DHT22;11046;49.558;8.674;2024-02-21T04:16:31;7.70;99.90
21770;DHT22;11046;49.558;8.674;2024-02-21T04:19:32;7.70;99.90
21770;DHT22;11046;49.558;8.674;2024-02-21T04:22:34;7.70;99.90
21770;DHT22;11046;49.558;8.674;2024-02-21T04:25:35;7.70;99.90
21770;DHT22;11046;49.558;8.674;2024-02-21T04:28:36;7.70;99.90
21770;DHT22;11046;49.558;8.674;2024-02-21T04:31:36;7.70;99.90
21770;DHT22;11046;49.558;8.674;2024-02-21T04:34:37;7.70;99.90
21770;DHT22;11046;49.558;8.674;2024-02-21T04:37:38;7.70;99.90
21770;DHT22;11046;49.558;8.674;2024-02-21T04:40:38;7.70;99.90
21770;DHT22;11046;49.558;8.674;2024-02-21T04:43:39;7.70;99.90
21770;DHT22;11046;49.558;8.674;2024-02-21T04:46:42;7.60;99.90
21770;DHT22;11046;49.558;8.674;2024-02-21T04:49:43;7.70;99.90
21770;DHT22;11046;49.558;8.674;2024-02-21T04:52:44;7.70;99.90
21770;DHT22;11046;49.558;8.674;2024-02-21T04:55:45;7.70;99.90
21770;DHT22;11046;49.558;8.674;2024-02-21T04:58:46;7.70;99.90
21770;DHT22;11046;49.558;8.674;2024-02-21T05:01:46;7.70;99.90
21770;DHT22;11046;49.558;8.674;2024-02-21T05:04:47;7.60;99.90
21770;DHT22;11046;49.558;8.674;2024-02-21T05:07:48;7.70;99.90
21770;DHT22;11046;49.558;8.674;2024-02-21T05:10:48;7.60;99.90
21770;DHT22;11046;49.558;8.674;2024-02-21T05:13:49;7.60;99.90
21770;DHT22;11046;49.558;8.674;2024-02-21T05:16:50;7.50;99.90
21770;DHT22;11046;49.558;8.674;2024-02-21T05:19:50;7.60;99.90
21770;DHT22;11046;49.558;8.674;2024-02-21T05:22:51;7.50;99.90
21770;DHT22;11046;49.558;8.674;2024-02-21T05:25:52;7.60;99.90
21770;DHT22;11046;49.558;8.674;2024-02-21T05:28:52;7.60;99.90
21770;DHT22;11046;49.558;8.674;2024-02-21T05:34:54;7.60;99.90
21770;DHT22;11046;49.558;8.674;2024-02-21T05:37:55;7.60;99.90
21770;DHT22;11046;49.558;8.674;2024-02-21T05:40:55;7.60;99.90
21770;DHT22;11046;49.558;8.674;2024-02-21T05:43:57;7.60;99.90
21770;DHT22;11046;49.558;8.674;2024-02-21T05:46:59;7.50;99.90
21770;DHT22;11046;49.558;8.674;2024-02-21T05:50:00;7.40;99.90
21770;DHT22;11046;49.558;8.674;2024-02-21T05:53:10;7.30;99.90
21770;DHT22;11046;49.558;8.674;2024-02-21T05:56:17;7.30;99.90
21770;DHT22;11046;49.558;8.674;2024-02-21T05:59:18;7.30;99.90
21770;DHT22;11046;49.558;8.674;2024-02-21T06:05:37;7.30;99.90
21770;DHT22;11046;49.558;8.674;2024-02-21T06:08:40;7.20;99.90
21770;DHT22;11046;49.558;8.674;2024-02-21T06:11:40;7.20;99.90
21770;DHT22;11046;49.558;8.674;2024-02-21T06:14:41;7.10;99.90
21770;DHT22;11046;49.558;8.674;2024-02-21T06:17:41;7.10;99.90
21770;DHT22;11046;49.558;8.674;2024-02-21T06:20:42;7.10;99.90
21770;DHT22;11046;49.558;8.674;2024-02-21T06:23:43;7.00;99.90
21770;DHT22;11046;49.558;8.674;2024-02-21T06:26:44;7.00;99.90
21770;DHT22;11046;49.558;8.674;2024-02-21T06:29:45;7.00;99.90
21770;DHT22;11046;49.558;8.674;2024-02-21T06:32:45;7.00;99.90
21770;DHT22;11046;49.558;8.674;2024-02-21T06:35:46;7.00;99.90
21770;DHT22;11046;49.558;8.674;2024-02-21T06:38:48;7.00;99.90
21770;DHT22;11046;49.558;8.674;2024-02-21T06:41:48;7.00;99.90
21770;DHT22;11046;49.558;8.674;2024-02-21T06:44:51;6.90;99.90
21770;DHT22;11046;49.558;8.674;2024-02-21T06:47:52;7.00;99.90
21770;DHT22;11046;49.558;8.674;2024-02-21T06:50:52;7.00;99.90
21770;DHT22;11046;49.558;8.674;2024-02-21T06:53:53;6.90;99.90
21770;DHT22;11046;49.558;8.674;2024-02-21T06:57:00;6.90;99.90
21770;DHT22;11046;49.558;8.674;2024-02-21T07:00:04;7.00;99.90
21770;DHT22;11046;49.558;8.674;2024-02-21T07:03:08;7.10;99.90
21770;DHT22;11046;49.558;8.674;2024-02-21T07:06:12;7.00;99.90
21770;DHT22;11046;49.558;8.674;2024-02-21T07:09:13;7.10;99.90
21770;DHT22;11046;49.558;8.674;2024-02-21T07:12:13;7.10;99.90
21770;DHT22;11046;49.558;8.674;2024-02-21T07:15:14;7.20;99.90
21770;DHT22;11046;49.558;8.674;2024-02-21T07:18:16;7.30;99.90
21770;DHT22;11046;49.558;8.674;2024-02-21T07:21:17;7.30;99.90
21770;DHT22;11046;49.558;8.674;2024-02-21T07:24:17;7.40;99.90
21770;DHT22;11046;49.558;8.674;2024-02-21T07:27:18;7.40;99.90
21770;DHT22;11046;49.558;8.674;2024-02-21T07:30:18;7.40;99.90
21770;DHT22;11046;49.558;8.674;2024-02-21T07:33:19;7.40;99.90
21770;DHT22;11046;49.558;8.674;2024-02-21T07:36:29;7.40;99.90
21770;DHT22;11046;49.558;8.674;2024-02-21T07:39:30;7.50;99.90
21770;DHT22;11046;49.558;8.674;2024-02-21T07:42:31;7.60;99.90
21770;DHT22;11046;49.558;8.674;2024-02-21T07:45:31;7.70;99.90
21770;DHT22;11046;49.558;8.674;2024-02-21T07:48:32;7.70;99.90
21770;DHT22;11046;49.558;8.674;2024-02-21T07:51:32;7.70;99.90
21770;DHT22;11046;49.558;8.674;2024-02-21T07:54:33;7.80;99.90
21770;DHT22;11046;49.558;8.674;2024-02-21T07:57:34;7.90;99.90
21770;DHT22;11046;49.558;8.674;2024-02-21T08:00:34;8.10;99.90
21770;DHT22;11046;49.558;8.674;2024-02-21T08:03:35;8.20;99.90
21770;DHT22;11046;49.558;8.674;2024-02-21T08:06:35;8.30;99.90
21770;DHT22;11046;49.558;8.674;2024-02-21T08:09:36;8.40;99.90
21770;DHT22;11046;49.558;8.674;2024-02-21T08:12:38;8.60;99.90
21770;DHT22;11046;49.558;8.674;2024-02-21T08:15:39;8.60;99.90
21770;DHT22;11046;49.558;8.674;2024-02-21T08:18:44;8.50;99.90
21770;DHT22;11046;49.558;8.674;2024-02-21T08:21:45;8.60;99.90
21770;DHT22;11046;49.558;8.674;2024-02-21T08:24:48;8.70;99.90
21770;DHT22;11046;49.558;8.674;2024-02-21T08:27:49;8.70;99.90
21770;DHT22;11046;49.558;8.674;2024-02-21T08:30:49;8.70;99.90
21770;DHT22;11046;49.558;8.674;2024-02-21T08:33:50;8.60;99.90
21770;DHT22;11046;49.558;8.674;2024-02-21T08:36:50;8.60;99.90
21770;DHT22;11046;49.558;8.674;2024-02-21T08:39:51;8.60;99.90
21770;DHT22;11046;49.558;8.674;2024-02-21T08:42:51;8.70;99.90
21770;DHT22;11046;49.558;8.674;2024-02-21T08:45:54;8.70;99.90
21770;DHT22;11046;49.558;8.674;2024-02-21T08:48:54;8.60;99.90
21770;DHT22;11046;49.558;8.674;2024-02-21T08:51:55;8.60;99.90
21770;DHT22;11046;49.558;8.674;2024-02-21T08:54:56;8.70;99.90
21770;DHT22;11046;49.558;8.674;2024-02-21T08:57:56;8.80;99.90
21770;DHT22;11046;49.558;8.674;2024-02-21T09:00:57;8.80;99.90
21770;DHT22;11046;49.558;8.674;2024-02-21T09:03:57;8.80;99.90
21770;DHT22;11046;49.558;8.674;2024-02-21T09:06:59;8.90;99.90
21770;DHT22;11046;49.558;8.674;2024-02-21T09:09:59;9.00;99.90
21770;DHT22;11046;49.558;8.674;2024-02-21T09:13:01;9.20;99.90
21770;DHT22;11046;49.558;8.674;2024-02-21T09:16:04;9.30;99.90
21770;DHT22;11046;49.558;8.674;2024-02-21T09:19:05;9.40;99.90
21770;DHT22;11046;49.558;8.674;2024-02-21T09:22:05;9.70;99.90
21770;DHT22;11046;49.558;8.674;2024-02-21T09:25:06;10.00;99.90
21770;DHT22;11046;49.558;8.674;2024-02-21T09:28:07;10.20;99.90
21770;DHT22;11046;49.558;8.674;2024-02-21T09:31:07;10.50;99.90
21770;DHT22;11046;49.558;8.674;2024-02-21T09:34:08;10.60;99.90
21770;DHT22;11046;49.558;8.674;2024-02-21T09:37:09;10.70;99.90
21770;DHT22;11046;49.558;8.674;2024-02-21T09:40:10;10.90;99.90
21770;DHT22;11046;49.558;8.674;2024-02-21T09:43:11;11.00;99.80
21770;DHT22;11046;49.558;8.674;2024-02-21T09:46:19;11.20;99.80
21770;DHT22;11046;49.558;8.674;2024-02-21T09:49:30;11.30;99.30
21770;DHT22;11046;49.558;8.674;2024-02-21T09:52:35;11.30;99.30
21770;DHT22;11046;49.558;8.674;2024-02-21T09:55:37;11.30;99.30
21770;DHT22;11046;49.558;8.674;2024-02-21T09:58:40;11.40;99.20
21770;DHT22;11046;49.558;8.674;2024-02-21T10:01:44;11.30;99.00
21770;DHT22;11046;49.558;8.674;2024-02-21T10:04:47;11.20;99.00
21770;DHT22;11046;49.558;8.674;2024-02-21T10:07:48;11.30;99.20
21770;DHT22;11046;49.558;8.674;2024-02-21T10:10:50;11.50;99.00
21770;DHT22;11046;49.558;8.674;2024-02-21T10:14:06;11.40;98.60
21770;DHT22;11046;49.558;8.674;2024-02-21T10:17:08;11.30;98.50
21770;DHT22;11046;49.558;8.674;2024-02-21T10:20:10;11.40;98.80
21770;DHT22;11046;49.558;8.674;2024-02-21T10:23:11;11.60;98.50
21770;DHT22;11046;49.558;8.674;2024-02-21T10:26:13;11.60;98.40
21770;DHT22;11046;49.558;8.674;2024-02-21T10:29:14;11.70;98.40
21770;DHT22;11046;49.558;8.674;2024-02-21T10:32:18;11.80;98.50
21770;DHT22;11046;49.558;8.674;2024-02-21T10:35:27;11.90;98.30
21770;DHT22;11046;49.558;8.674;2024-02-21T10:38:28;11.90;98.10
21770;DHT22;11046;49.558;8.674;2024-02-21T10:41:31;11.70;98.10
21770;DHT22;11046;49.558;8.674;2024-02-21T10:44:35;11.80;98.30
21770;DHT22;11046;49.558;8.674;2024-02-21T10:47:41;11.80;98.00
21770;DHT22;11046;49.558;8.674;2024-02-21T10:54:30;12.00;97.90
21770;DHT22;11046;49.558;8.674;2024-02-21T10:57:35;12.10;97.60
21770;DHT22;11046;49.558;8.674;2024-02-21T11:00:37;12.10;97.50
21770;DHT22;11046;49.558;8.674;2024-02-21T11:03:38;12.10;97.50
21770;DHT22;11046;49.558;8.674;2024-02-21T11:06:46;12.10;97.50
21770;DHT22;11046;49.558;8.674;2024-02-21T11:09:51;12.10;97.30
21770;DHT22;11046;49.558;8.674;2024-02-21T11:13:10;12.10;97.20
21770;DHT22;11046;49.558;8.674;2024-02-21T11:16:22;12.00;97.20
21770;DHT22;11046;49.558;8.674;2024-02-21T11:19:25;12.00;97.20
21770;DHT22;11046;49.558;8.674;2024-02-21T11:22:28;12.20;97.20
21770;DHT22;11046;49.558;8.674;2024-02-21T11:25:31;12.20;97.10
21770;DHT22;11046;49.558;8.674;2024-02-21T11:28:34;12.10;97.20
21770;DHT22;11046;49.558;8.674;2024-02-21T11:31:40;12.20;97.00
21770;DHT22;11046;49.558;8.674;2024-02-21T11:35:00;12.20;96.90
21770;DHT22;11046;49.558;8.674;2024-02-21T11:38:09;12.20;97.00
21770;DHT22;11046;49.558;8.674;2024-02-21T11:41:10;12.20;97.00
21770;DHT22;11046;49.558;8.674;2024-02-21T11:44:11;12.10;97.20
21770;DHT22;11046;49.558;8.674;2024-02-21T11:47:11;12.20;97.00
21770;DHT22;11046;49.558;8.674;2024-02-21T11:50:12;12.30;96.80
21770;DHT22;11046;49.558;8.674;2024-02-21T11:53:13;12.20;96.50
21770;DHT22;11046;49.558;8.674;2024-02-21T11:56:14;12.20;96.40
21770;DHT22;11046;49.558;8.674;2024-02-21T11:59:14;12.30;96.30
21770;DHT22;11046;49.558;8.674;2024-02-21T12:02:15;12.20;96.40
21770;DHT22;11046;49.558;8.674;2024-02-21T12:05:16;12.30;96.30
21770;DHT22;11046;49.558;8.674;2024-02-21T12:08:19;12.30;96.20
21770;DHT22;11046;49.558;8.674;2024-02-21T12:11:23;12.40;96.20
21770;DHT22;11046;49.558;8.674;2024-02-21T12:14:25;12.50;96.00
21770;DHT22;11046;49.558;8.674;2024-02-21T12:17:26;12.50;95.90
21770;DHT22;11046;49.558;8.674;2024-02-21T12:20:26;12.30;95.50
21770;DHT22;11046;49.558;8.674;2024-02-21T12:23:27;12.20;95.70
21770;DHT22;11046;49.558;8.674;2024-02-21T12:26:28;12.20;95.50
21770;DHT22;11046;49.558;8.674;2024-02-21T12:29:28;12.20;95.70
21770;DHT22;11046;49.558;8.674;2024-02-21T12:32:30;12.40;95.80
21770;DHT22;11046;49.558;8.674;2024-02-21T12:35:31;12.50;95.50
21770;DHT22;11046;49.558;8.674;2024-02-21T12:38:33;12.50;95.50
21770;DHT22;11046;49.558;8.674;2024-02-21T12:41:35;12.50;95.40
21770;DHT22;11046;49.558;8.674;2024-02-21T12:44:38;12.60;95.30
21770;DHT22;11046;49.558;8.674;2024-02-21T12:47:39;12.50;95.10
21770;DHT22;11046;49.558;8.674;2024-02-21T12:50:48;12.50;95.00
21770;DHT22;11046;49.558;8.674;2024-02-21T12:53:50;12.40;94.90
21770;DHT22;11046;49.558;8.674;2024-02-21T12:56:50;12.30;95.10
21770;DHT22;11046;49.558;8.674;2024-02-21T12:59:51;12.30;95.10
21770;DHT22;11046;49.558;8.674;2024-02-21T13:02:51;12.20;95.00
21770;DHT22;11046;49.558;8.674;2024-02-21T13:05:52;12.20;94.90
21770;DHT22;11046;49.558;8.674;2024-02-21T13:08:53;12.20;95.10
21770;DHT22;11046;49.558;8.674;2024-02-21T13:11:54;12.20;95.10
21770;DHT22;11046;49.558;8.674;2024-02-21T13:14:54;12.30;95.10
21770;DHT22;11046;49.558;8.674;2024-02-21T13:17:58;12.30;95.00
21770;DHT22;11046;49.558;8.674;2024-02-21T13:20:59;12.30;95.00
21770;DHT22;11046;49.558;8.674;2024-02-21T13:23:59;12.20;95.00
21770;DHT22;11046;49.558;8.674;2024-02-21T13:27:00;12.20;95.10
21770;DHT22;11046;49.558;8.674;2024-02-21T13:30:00;12.30;95.00
21770;DHT22;11046;49.558;8.674;2024-02-21T13:33:07;12.30;95.00
21770;DHT22;11046;49.558;8.674;2024-02-21T13:36:07;12.30;95.10
21770;DHT22;11046;49.558;8.674;2024-02-21T13:39:08;12.20;95.10
21770;DHT22;11046;49.558;8.674;2024-02-21T13:42:09;12.20;95.00
21770;DHT22;11046;49.558;8.674;2024-02-21T13:45:09;12.30;95.10
21770;DHT22;11046;49.558;8.674;2024-02-21T13:48:10;12.30;94.80
21770;DHT22;11046;49.558;8.674;2024-02-21T13:51:12;12.20;94.70
21770;DHT22;11046;49.558;8.674;2024-02-21T13:54:13;12.10;94.70
21770;DHT22;11046;49.558;8.674;2024-02-21T13:57:17;12.00;94.70
21770;DHT22;11046;49.558;8.674;2024-02-21T14:00:18;12.10;94.70
21770;DHT22;11046;49.558;8.674;2024-02-21T14:03:19;12.20;94.70
21770;DHT22;11046;49.558;8.674;2024-02-21T14:06:20;12.20;94.60
21770;DHT22;11046;49.558;8.674;2024-02-21T14:09:21;12.20;94.50
21770;DHT22;11046;49.558;8.674;2024-02-21T14:12:22;12.30;94.50
21770;DHT22;11046;49.558;8.674;2024-02-21T14:15:22;12.20;94.40
21770;DHT22;11046;49.558;8.674;2024-02-21T14:18:23;12.10;94.30
21770;DHT22;11046;49.558;8.674;2024-02-21T14:21:23;12.00;94.40
21770;DHT22;11046;49.558;8.674;2024-02-21T14:24:24;12.00;94.50
21770;DHT22;11046;49.558;8.674;2024-02-21T14:27:24;12.10;94.40
21770;DHT22;11046;49.558;8.674;2024-02-21T14:30:25;12.10;94.30
21770;DHT22;11046;49.558;8.674;2024-02-21T14:33:29;12.20;94.20
21770;DHT22;11046;49.558;8.674;2024-02-21T14:36:31;12.20;94.00
21770;DHT22;11046;49.558;8.674;2024-02-21T14:39:32;12.10;94.00
21770;DHT22;11046;49.558;8.674;2024-02-21T14:42:35;12.10;93.90
21770;DHT22;11046;49.558;8.674;2024-02-21T14:45:35;12.10;94.00
21770;DHT22;11046;49.558;8.674;2024-02-21T14:48:36;12.10;94.00
21770;DHT22;11046;49.558;8.674;2024-02-21T14:51:36;12.00;94.00
21770;DHT22;11046;49.558;8.674;2024-02-21T14:54:37;12.10;94.00
21770;DHT22;11046;49.558;8.674;2024-02-21T14:57:38;12.10;93.90
21770;DHT22;11046;49.558;8.674;2024-02-21T15:00:41;12.20;93.80
21770;DHT22;11046;49.558;8.674;2024-02-21T15:03:41;12.30;93.60
21770;DHT22;11046;49.558;8.674;2024-02-21T15:06:43;12.30;93.60
21770;DHT22;11046;49.558;8.674;2024-02-21T15:09:45;12.20;93.60
21770;DHT22;11046;49.558;8.674;2024-02-21T15:12:46;12.30;93.40
21770;DHT22;11046;49.558;8.674;2024-02-21T15:15:47;12.20;93.40
21770;DHT22;11046;49.558;8.674;2024-02-21T15:18:48;12.20;93.40
21770;DHT22;11046;49.558;8.674;2024-02-21T15:21:49;12.20;93.30
21770;DHT22;11046;49.558;8.674;2024-02-21T15:24:49;12.10;93.20
21770;DHT22;11046;49.558;8.674;2024-02-21T15:27:50;12.10;92.90
21770;DHT22;11046;49.558;8.674;2024-02-21T15:30:50;11.90;92.30
21770;DHT22;11046;49.558;8.674;2024-02-21T15:33:52;11.70;92.30
21770;DHT22;11046;49.558;8.674;2024-02-21T15:36:53;11.60;92.20
21770;DHT22;11046;49.558;8.674;2024-02-21T15:39:53;11.50;92.30
21770;DHT22;11046;49.558;8.674;2024-02-21T15:42:54;11.50;92.30
21770;DHT22;11046;49.558;8.674;2024-02-21T15:45:55;11.50;92.30
21770;DHT22;11046;49.558;8.674;2024-02-21T15:48:55;11.50;92.20
21770;DHT22;11046;49.558;8.674;2024-02-21T15:51:56;11.40;92.00
21770;DHT22;11046;49.558;8.674;2024-02-21T15:54:57;11.40;91.90
21770;DHT22;11046;49.558;8.674;2024-02-21T15:57:58;11.40;91.80
21770;DHT22;11046;49.558;8.674;2024-02-21T16:00:58;11.30;91.80
21770;DHT22;11046;49.558;8.674;2024-02-21T16:03:59;11.20;91.80
21770;DHT22;11046;49.558;8.674;2024-02-21T16:07:00;11.20;91.70
21770;DHT22;11046;49.558;8.674;2024-02-21T16:10:01;11.20;91.80
21770;DHT22;11046;49.558;8.674;2024-02-21T16:13:01;11.10;91.80
21770;DHT22;11046;49.558;8.674;2024-02-21T16:16:02;11.20;91.90
21770;DHT22;11046;49.558;8.674;2024-02-21T16:19:03;11.20;91.90
21770;DHT22;11046;49.558;8.674;2024-02-21T16:22:05;11.10;92.00
21770;DHT22;11046;49.558;8.674;2024-02-21T16:25:06;11.00;92.00
21770;DHT22;11046;49.558;8.674;2024-02-21T16:28:07;11.00;92.10
21770;DHT22;11046;49.558;8.674;2024-02-21T16:31:11;11.00;92.20
21770;DHT22;11046;49.558;8.674;2024-02-21T16:34:12;10.90;92.30
21770;DHT22;11046;49.558;8.674;2024-02-21T16:37:12;11.00;92.40
21770;DHT22;11046;49.558;8.674;2024-02-21T16:40:14;11.00;92.40
21770;DHT22;11046;49.558;8.674;2024-02-21T16:43:14;10.90;92.40
21770;DHT22;11046;49.558;8.674;2024-02-21T16:46:15;10.90;92.50
21770;DHT22;11046;49.558;8.674;2024-02-21T16:49:16;10.90;92.60
21770;DHT22;11046;49.558;8.674;2024-02-21T16:52:18;10.80;92.60
21770;DHT22;11046;49.558;8.674;2024-02-21T16:55:19;10.70;92.70
21770;DHT22;11046;49.558;8.674;2024-02-21T16:58:19;10.70;92.70
21770;DHT22;11046;49.558;8.674;2024-02-21T17:01:20;10.70;92.70
21770;DHT22;11046;49.558;8.674;2024-02-21T17:04:20;10.70;92.70
21770;DHT22;11046;49.558;8.674;2024-02-21T17:07:22;10.60;92.90
21770;DHT22;11046;49.558;8.674;2024-02-21T17:10:23;10.50;92.90
21770;DHT22;11046;49.558;8.674;2024-02-21T17:13:23;10.50;93.00
21770;DHT22;11046;49.558;8.674;2024-02-21T17:16:24;10.60;93.00
21770;DHT22;11046;49.558;8.674;2024-02-21T17:19:25;10.50;93.00
21770;DHT22;11046;49.558;8.674;2024-02-21T17:22:25;10.40;93.00
21770;DHT22;11046;49.558;8.674;2024-02-21T17:25:26;10.50;93.10
21770;DHT22;11046;49.558;8.674;2024-02-21T17:28:27;10.50;93.00
21770;DHT22;11046;49.558;8.674;2024-02-21T17:31:28;10.50;93.10
21770;DHT22;11046;49.558;8.674;2024-02-21T17:34:29;10.50;93.00
21770;DHT22;11046;49.558;8.674;2024-02-21T17:37:33;10.40;93.10
21770;DHT22;11046;49.558;8.674;2024-02-21T17:40:36;10.30;93.20
21770;DHT22;11046;49.558;8.674;2024-02-21T17:43:37;10.30;93.20
21770;DHT22;11046;49.558;8.674;2024-02-21T17:46:41;10.30;93.30
21770;DHT22;11046;49.558;8.674;2024-02-21T17:49:44;10.30;93.30
21770;DHT22;11046;49.558;8.674;2024-02-21T17:52:46;10.20;93.40
21770;DHT22;11046;49.558;8.674;2024-02-21T17:55:47;10.20;93.50
21770;DHT22;11046;49.558;8.674;2024-02-21T17:58:48;10.20;93.50
21770;DHT22;11046;49.558;8.674;2024-02-21T18:01:48;10.20;93.60
21770;DHT22;11046;49.558;8.674;2024-02-21T18:04:49;10.20;93.60
21770;DHT22;11046;49.558;8.674;2024-02-21T18:07:50;10.20;93.60
21770;DHT22;11046;49.558;8.674;2024-02-21T18:10:50;10.20;93.80
21770;DHT22;11046;49.558;8.674;2024-02-21T18:13:51;10.20;93.70
21770;DHT22;11046;49.558;8.674;2024-02-21T18:16:55;10.20;93.80
21770;DHT22;11046;49.558;8.674;2024-02-21T18:19:55;10.10;93.90
21770;DHT22;11046;49.558;8.674;2024-02-21T18:22:56;10.10;94.30
21770;DHT22;11046;49.558;8.674;2024-02-21T18:25:56;10.00;94.00
21770;DHT22;11046;49.558;8.674;2024-02-21T18:28:59;9.90;94.10
21770;DHT22;11046;49.558;8.674;2024-02-21T18:31:59;9.90;94.10
21770;DHT22;11046;49.558;8.674;2024-02-21T18:35:00;10.00;94.10
21770;DHT22;11046;49.558;8.674;2024-02-21T18:38:01;10.00;94.10
21770;DHT22;11046;49.558;8.674;2024-02-21T18:41:02;10.00;93.80
21770;DHT22;11046;49.558;8.674;2024-02-21T18:44:03;10.10;93.80
21770;DHT22;11046;49.558;8.674;2024-02-21T18:47:04;10.20;93.60
21770;DHT22;11046;49.558;8.674;2024-02-21T18:50:05;10.20;93.60
21770;DHT22;11046;49.558;8.674;2024-02-21T18:53:06;10.20;93.50
21770;DHT22;11046;49.558;8.674;2024-02-21T18:56:07;10.30;93.40
21770;DHT22;11046;49.558;8.674;2024-02-21T18:59:08;10.30;93.30
21770;DHT22;11046;49.558;8.674;2024-02-21T19:02:08;10.40;93.30
21770;DHT22;11046;49.558;8.674;2024-02-21T19:05:09;10.40;93.10
21770;DHT22;11046;49.558;8.674;2024-02-21T19:08:09;10.40;93.20
21770;DHT22;11046;49.558;8.674;2024-02-21T19:11:10;10.40;93.00
21770;DHT22;11046;49.558;8.674;2024-02-21T19:14:11;10.40;93.10
21770;DHT22;11046;49.558;8.674;2024-02-21T19:17:11;10.40;93.00
21770;DHT22;11046;49.558;8.674;2024-02-21T19:20:12;10.40;93.00
21770;DHT22;11046;49.558;8.674;2024-02-21T19:23:13;10.50;93.00
21770;DHT22;11046;49.558;8.674;2024-02-21T19:26:13;10.50;92.90
21770;DHT22;11046;49.558;8.674;2024-02-21T19:29:15;10.50;92.80